Latest Weather Observations for Alice Springs Airport

IDD60801

Issued at 9:01 am CST Wednesday 1 July 2015 (issued every 30 minutes, with the page automatically refreshed every 10 minutes)

About weather observations | Map of weather stations | Latest weather observations for NT | Other Formats
Station Details ID: 015590 Name: ALICE SPRINGS AIRPORT Lat: -23.80 Lon: 133.89 Height: 546.0 m
Data from the previous 72 hours. | See also: Recent months at Alice Springs Airport
Date/Time
CST
Temp
°C
App
Temp
°C
Dew
Point
Rel
Hum
%
Delta-T
°C
Wind Press
QNH
hPa
Press
MSL
hPa
Rain
since 9 am
mm
Dir
 
Spd
km/h
Gust
km/h
Spd
kts
Gust
kts
01/08:30am 8.5 6.5 6.2 85 1.1 WNW 6 7 3 4 1030.0 1029.7 0.0
01/07:30am 6.0 3.4 4.2 88 0.8 WSW 7 9 4 5 1029.4 1029.2 0.0
01/07:00am 5.6 2.6 4.0 89 0.7 SW 9 9 5 5 1029.2 1028.9 0.0
01/06:30am 5.5 2.4 3.4 86 0.9 SW 9 9 5 5 1028.8 1028.5 0.0
01/05:30am 5.0 2.6 2.4 83 1.1 WSW 4 7 2 4 1028.6 1028.3 0.0
01/05:00am 4.3 1.6 2.4 87 0.8 SW 6 7 3 4 1028.4 1028.1 0.0
01/04:49am 4.0 1.0 2.3 89 0.7 SSW 7 9 4 5 1028.3 1028.0 0.0
01/04:30am 3.8 2.1 2.1 89 0.7 CALM 0 0 0 0 1028.3 1028.0 0.0
01/04:00am 4.3 2.4 2.9 91 0.6 N 2 6 1 3 1028.3 1028.0 0.0
01/03:30am 4.3 1.5 2.9 91 0.6 NNW 7 7 4 4 1028.3 1028.0 0.0
01/03:00am 5.1 2.4 3.5 89 0.7 WNW 7 7 4 4 1028.5 1028.2 0.0
01/02:30am 4.9 3.1 3.3 89 0.7 W 2 7 1 4 1028.5 1028.2 0.0
01/02:00am 5.5 2.7 3.2 85 1.0 WNW 7 9 4 5 1028.6 1028.3 0.0
01/01:30am 5.8 3.1 3.7 86 0.9 WNW 7 7 4 4 1028.5 1028.2 0.0
01/01:00am 6.2 3.5 3.7 84 1.1 WNW 7 7 4 4 1028.4 1028.1 0.0
01/12:30am 6.3 3.7 4.0 85 1.0 NW 7 7 4 4 1028.3 1028.0 0.0
01/12:00am 6.3 5.0 4.3 87 0.9 CALM 0 7 0 4 1028.2 1027.9 0.0
 
Date/Time
CST
Temp
°C
App
Temp
°C
Dew
Point
Rel
Hum
%
Delta-T
°C
Wind Press
QNH
hPa
Press
MSL
hPa
Rain
since 9 am
mm
Dir
 
Spd
km/h
Gust
km/h
Spd
kts
Gust
kts
30/11:30pm 6.8 5.5 4.1 83 1.2 CALM 0 0 0 0 1028.3 1028.0 0.0
30/11:00pm 7.7 6.6 5.1 83 1.2 CALM 0 0 0 0 1028.5 1028.2 0.0
30/10:30pm 8.4 7.3 5.1 80 1.5 CALM 0 0 0 0 1028.4 1028.1 0.0
30/10:00pm 8.7 7.6 5.0 77 1.7 CALM 0 0 0 0 1028.3 1028.0 0.0
30/09:30pm 8.6 6.1 4.9 77 1.7 S 7 9 4 5 1028.2 1027.9 0.0
30/09:00pm 9.1 6.6 4.7 74 2.0 SSE 7 7 4 4 1028.0 1027.7 0.0
30/08:30pm 10.4 7.9 5.0 69 2.5 SE 7 7 4 4 1027.5 1027.2 0.0
30/08:00pm 11.6 9.6 6.4 70 2.5 E 6 7 3 4 1027.4 1027.1 0.0
30/07:30pm 12.2 10.0 6.0 66 3.0 ESE 7 7 4 4 1027.1 1026.8 0.0
30/07:00pm 12.6 10.4 6.2 65 3.1 SE 7 9 4 5 1026.6 1026.3 0.0
30/06:30pm 14.4 11.4 6.0 57 4.1 SE 11 15 6 8 1026.4 1026.1 0.0
30/06:00pm 16.3 12.5 5.8 50 5.2 SSE 15 19 8 10 1026.1 1025.7 0.0
30/05:30pm 17.3 13.5 5.6 46 5.8 SE 15 19 8 10 1025.8 1025.4 0.0
30/05:00pm 17.8 13.6 5.8 45 6.0 SE 17 26 9 14 1025.4 1025.1 0.0
30/04:30pm 18.1 13.4 6.0 45 6.1 SE 20 26 11 14 1025.4 1025.1 0.0
30/04:00pm 18.0 14.0 6.6 47 5.8 SE 17 24 9 13 1025.5 1025.2 0.0
30/03:30pm 17.8 13.8 6.6 48 5.7 ESE 17 28 9 15 1025.7 1025.3 0.0
30/03:00pm 17.8 13.5 7.1 49 5.5 ESE 19 24 10 13 1025.9 1025.5 0.0
30/02:30pm 16.3 12.7 8.4 59 4.1 ESE 17 24 9 13 1026.2 1025.8 0.0
30/02:00pm 15.9 12.8 8.8 62 3.7 ESE 15 24 8 13 1026.7 1026.4 0.0
30/01:30pm 15.3 12.2 9.0 66 3.3 S 15 20 8 11 1027.4 1027.1 0.0
30/01:25pm 15.7 12.6 9.0 64 3.5 SSE 15 20 8 11 1027.4 1027.1 0.0
30/01:00pm 14.9 12.1 8.7 66 3.2 SE 13 19 7 10 1027.9 1027.6 0.0
30/12:30pm 13.8 10.8 9.2 74 2.4 SE 15 20 8 11 1028.4 1028.1 0.0
30/12:00pm 13.2 10.6 9.4 78 2.0 SE 13 17 7 9 1028.7 1028.4 0.0
30/11:30am 12.9 9.5 9.2 78 1.9 SE 17 20 9 11 1029.0 1028.7 0.0
30/11:00am 12.7 9.7 9.2 79 1.8 SE 15 22 8 12 1029.2 1028.9 0.0
30/10:30am 12.2 8.8 9.3 82 1.5 ESE 17 24 9 13 1029.3 1029.0 0.0
30/10:00am 12.2 9.0 9.9 86 1.2 SE 17 24 9 13 1029.3 1029.0 0.0
30/09:30am 12.5 9.2 9.6 82 1.5 SE 17 22 9 12 1029.2 1028.9 0.0
30/09:00am 12.4 9.5 9.7 83 1.4 SE 15 22 8 12 1029.1 1028.8 0.0
30/08:30am 12.1 9.3 10.0 87 1.1 SSE 15 19 8 10 1028.9 1028.6 0.0
30/08:00am 12.3 9.4 9.6 83 1.4 ESE 15 22 8 12 1028.4 1028.1 0.0
30/07:30am 12.1 9.2 9.8 86 1.2 SE 15 20 8 11 1027.9 1027.6 0.0
30/07:00am 12.1 9.2 9.6 85 1.3 SE 15 22 8 12 1027.5 1027.2 0.0
30/06:30am 12.3 9.4 9.8 85 1.3 SE 15 20 8 11 1027.1 1026.8 0.0
30/06:00am 12.4 10.3 9.7 83 1.4 SE 11 15 6 8 1026.5 1026.2 0.0
30/05:30am 12.2 10.5 9.9 86 1.2 ESE 9 11 5 6 1026.2 1025.8 0.0
30/05:00am 11.9 10.8 10.0 88 1.0 E 6 9 3 5 1026.1 1025.7 0.0
30/04:30am 11.4 10.3 9.9 90 0.8 E 6 7 3 4 1026.1 1025.7 0.0
30/04:00am 10.3 8.4 9.1 92 0.6 SE 9 9 5 5 1026.0 1025.6 0.0
30/03:32am 9.3 7.7 8.7 96 0.3 SSE 7 7 4 4 1025.9 1025.5 0.0
30/03:30am 9.4 7.8 8.6 95 0.4 SSE 7 7 4 4 1025.9 1025.5 0.0
30/03:00am 9.9 8.3 8.7 92 0.6 S 7 9 4 5 1026.0 1025.6 0.0
30/02:35am 11.1 9.6 9.3 89 0.9 SE 7 7 4 4 1026.2 1025.8 0.0
30/02:30am 11.1 9.6 9.3 89 0.9 SE 7 7 4 4 1026.2 1025.8 0.0
30/02:00am 11.4 9.5 9.1 86 1.2 ESE 9 9 5 5 1026.4 1026.1 0.0
30/01:30am 10.3 8.6 8.5 89 0.9 SE 7 9 4 5 1026.5 1026.2 0.0
30/01:20am 10.2 8.6 8.6 90 0.8 ESE 7 9 4 5 1026.5 1026.2 0.0
30/01:00am 9.7 7.5 7.9 88 0.9 SE 9 11 5 6 1026.4 1026.1 0.0
30/12:30am 9.7 7.4 7.4 85 1.1 ESE 9 9 5 5 1026.4 1026.1 0.0
30/12:00am 10.6 8.9 8.4 86 1.1 ESE 7 7 4 4 1026.4 1026.1 0.0
 
Date/Time
CST
Temp
°C
App
Temp
°C
Dew
Point
Rel
Hum
%
Delta-T
°C
Wind Press
QNH
hPa
Press
MSL
hPa
Rain
since 9 am
mm
Dir
 
Spd
km/h
Gust
km/h
Spd
kts
Gust
kts
29/11:30pm 12.1 10.2 9.2 82 1.5 ESE 9 11 5 6 1026.7 1026.4 0.0
29/11:00pm 13.7 11.1 9.5 76 2.2 ESE 13 15 7 8 1026.7 1026.4 0.0
29/10:30pm 13.7 11.1 9.3 75 2.3 SE 13 17 7 9 1026.6 1026.3 0.0
29/10:00pm 13.4 11.1 9.0 75 2.3 SE 11 13 6 7 1026.5 1026.2 0.0
29/09:30pm 14.3 12.4 8.9 70 2.8 SE 9 11 5 6 1026.5 1026.2 0.0
29/09:00pm 14.9 12.6 9.0 68 3.1 SE 11 15 6 8 1026.3 1026.0 0.0
29/08:30pm 15.9 12.7 8.4 61 3.9 SE 15 19 8 10 1025.8 1025.4 0.0
29/08:00pm 16.3 13.4 8.0 58 4.3 SE 13 17 7 9 1025.4 1025.1 0.0
29/07:30pm 17.1 13.7 7.6 53 4.9 SE 15 20 8 11 1025.0 1024.7 0.0
29/07:00pm 18.1 14.7 7.5 50 5.5 SE 15 19 8 10 1024.5 1024.1 0.0
29/06:30pm 18.8 15.7 7.2 47 6.0 SE 13 17 7 9 1024.2 1023.8 0.0
29/06:00pm 18.9 16.2 7.3 47 6.0 SE 11 15 6 8 1023.8 1023.4 0.0
29/05:30pm 19.8 16.7 7.1 43 6.6 SE 13 19 7 10 1023.3 1023.0 0.0
29/05:00pm 20.5 17.4 7.1 42 7.0 SE 13 20 7 11 1023.0 1022.6 0.0
29/04:30pm 21.4 17.8 6.9 39 7.6 SE 15 20 8 11 1022.8 1022.4 0.0
29/04:00pm 20.8 16.9 7.3 41 7.1 SSE 17 28 9 15 1022.9 1022.5 0.0
29/03:30pm 21.6 18.1 7.2 39 7.6 SE 15 26 8 14 1022.7 1022.3 0.0
29/03:00pm 21.3 16.9 7.5 41 7.3 S 20 33 11 18 1023.0 1022.6 0.0
29/02:30pm 21.2 17.5 7.8 42 7.1 S 17 30 9 16 1023.3 1023.0 0.0
29/02:00pm 20.7 17.0 8.1 44 6.7 SE 17 24 9 13 1023.8 1023.4 0.0
29/01:30pm 20.0 16.8 8.4 47 6.2 SE 15 28 8 15 1024.1 1023.7 0.0
29/01:00pm 19.4 16.1 8.0 47 6.0 SE 15 30 8 16 1024.5 1024.1 0.0
29/12:30pm 19.4 15.8 8.5 49 5.8 SE 17 28 9 15 1025.0 1024.7 0.0
29/12:00pm 19.6 15.5 8.5 48 5.9 SE 20 28 11 15 1025.5 1025.2 0.0
29/11:30am 18.4 14.3 8.8 53 5.1 SE 20 30 11 16 1026.3 1026.0 0.0
29/11:00am 18.0 14.6 9.0 55 4.8 ESE 17 28 9 15 1026.5 1026.2 0.0
29/10:30am 16.4 13.6 8.6 60 4.1 E 13 20 7 11 1026.8 1026.5 0.0
29/10:00am 16.1 12.9 8.4 60 4.0 ESE 15 20 8 11 1026.7 1026.4 0.0
29/09:30am 14.9 11.9 7.8 62 3.6 E 13 19 7 10 1026.6 1026.3 0.0
29/09:00am 13.5 11.5 7.3 66 3.1 SE 7 9 4 5 1026.7 1026.4 0.0
29/08:30am 10.5 9.7 6.3 75 2.0 CALM 0 0 0 0 1026.4 1026.1 0.0
29/08:00am 9.1 6.6 5.0 75 1.9 W 7 9 4 5 1026.4 1026.1 0.0
29/07:30am 7.3 6.1 4.6 83 1.2 CALM 0 0 0 0 1026.1 1025.7 0.0
29/07:00am 8.2 7.2 5.4 82 1.3 CALM 0 0 0 0 1026.1 1025.7 0.0
29/06:30am 8.1 5.3 5.0 81 1.4 NNW 9 9 5 5 1025.9 1025.5 0.0
29/06:00am 9.3 7.6 5.7 78 1.7 NW 4 11 2 6 1025.8 1025.4 0.0
29/05:30am 9.5 8.5 5.7 77 1.8 CALM 0 0 0 0 1025.9 1025.5 0.0
29/05:00am 10.0 8.7 6.2 77 1.8 SW 2 7 1 4 1026.0 1025.6 0.0
29/04:30am 11.7 9.3 6.8 72 2.4 ESE 9 9 5 5 1025.7 1025.3 0.0
29/04:00am 12.2 9.3 6.7 69 2.7 ESE 11 13 6 7 1025.7 1025.3 0.0
29/03:30am 12.6 9.7 6.5 66 3.0 ESE 11 15 6 8 1025.8 1025.4 0.0
29/03:00am 12.1 8.8 6.3 67 2.8 ESE 13 15 7 8 1026.0 1025.6 0.0
29/02:30am 12.6 8.8 6.0 64 3.2 ESE 15 17 8 9 1026.0 1025.6 0.0
29/02:00am 12.5 9.0 5.6 63 3.3 ESE 13 17 7 9 1026.2 1025.8 0.0
29/01:30am 11.4 8.2 5.0 65 3.0 ESE 11 13 6 7 1026.5 1026.2 0.0
29/01:00am 11.9 8.3 4.9 62 3.3 ESE 13 15 7 8 1026.5 1026.2 0.0
29/12:30am 12.5 9.4 5.4 62 3.4 E 11 11 6 6 1026.6 1026.3 0.0
29/12:00am 13.2 10.5 5.7 60 3.6 ENE 9 11 5 6 1026.7 1026.4 0.0
 
Date/Time
CST
Temp
°C
App
Temp
°C
Dew
Point
Rel
Hum
%
Delta-T
°C
Wind Press
QNH
hPa
Press
MSL
hPa
Rain
since 9 am
mm
Dir
 
Spd
km/h
Gust
km/h
Spd
kts
Gust
kts
28/11:30pm 14.5 11.3 4.9 52 4.6 E 11 15 6 8 1026.9 1026.6 0.0
28/11:00pm 15.5 11.8 4.4 47 5.3 ESE 13 17 7 9 1026.8 1026.5 0.0
28/10:30pm 16.1 12.0 4.2 45 5.7 ESE 15 24 8 13 1027.0 1026.7 0.0
28/10:00pm 16.2 11.7 4.0 44 5.8 ESE 17 22 9 12 1027.2 1026.9 0.0
28/09:30pm 16.0 12.6 4.0 44 5.7 ESE 11 15 6 8 1027.0 1026.7 0.0
28/09:00pm 16.2 12.4 4.0 44 5.8 SE 13 19 7 10 1026.9 1026.6 0.0
28/08:30pm 16.4 12.2 3.8 43 6.0 SE 15 20 8 11 1026.7 1026.4 0.0
28/08:00pm 16.3 12.1 3.9 43 5.9 SE 15 20 8 11 1026.3 1026.0 0.0
28/07:30pm 16.4 12.5 3.5 42 6.1 SE 13 17 7 9 1026.0 1025.6 0.0
28/07:00pm 16.6 13.0 2.9 40 6.4 ESE 11 15 6 8 1025.7 1025.3 0.0
28/06:30pm 16.9 14.1 3.4 40 6.4 E 7 9 4 5 1025.2 1024.9 0.0
28/06:00pm 17.5 13.2 3.1 38 6.8 E 15 17 8 9 1024.8 1024.5 0.0
28/05:30pm 18.6 14.3 3.1 35 7.4 ESE 15 22 8 12 1024.6 1024.2 0.0
28/05:00pm 19.4 15.1 3.2 34 7.8 ESE 15 22 8 12 1024.3 1023.9 0.0
28/04:30pm 19.9 15.6 3.4 33 8.0 ESE 15 22 8 12 1024.2 1023.8 0.0
28/04:00pm 20.0 15.7 3.2 33 8.1 E 15 22 8 12 1024.3 1023.9 0.0
28/03:30pm 19.7 15.8 3.3 33 7.9 ENE 13 22 7 12 1024.4 1024.0 0.0
28/03:00pm 19.2 14.9 3.4 35 7.6 E 15 24 8 13 1024.3 1023.9 0.0
28/02:30pm 19.6 14.5 3.2 33 7.9 ENE 19 26 10 14 1024.4 1024.0 0.0
28/02:00pm 19.6 13.6 3.5 34 7.8 E 24 33 13 18 1024.8 1024.5 0.0
28/01:30pm 19.2 13.6 3.4 35 7.6 ESE 22 32 12 17 1025.3 1025.0 0.0
28/01:00pm 18.8 13.1 5.1 40 6.8 E 24 35 13 19 1026.1 1025.7 0.0
28/12:30pm 17.4 11.8 5.5 45 5.9 E 24 33 13 18 1026.8 1026.5 0.0
28/12:00pm 17.0 11.5 6.0 48 5.5 E 24 33 13 18 1027.2 1026.9 0.0
28/11:30am 16.2 10.7 5.9 50 5.1 E 24 32 13 17 1027.8 1027.4 0.0
28/11:00am 14.2 10.0 5.5 56 4.2 ESE 17 30 9 16 1028.3 1028.0 0.0
28/10:30am 12.9 9.3 5.1 59 3.7 E 13 24 7 13 1028.7 1028.4 0.0
28/10:00am 12.0 8.3 4.7 61 3.4 ESE 13 17 7 9 1029.0 1028.7 0.0
28/09:30am 9.8 6.8 4.1 67 2.6 ESE 9 11 5 6 1029.0 1028.7 0.0

Other Formats:

Comma delimited format used in spreadsheet applications
http://www.bom.gov.au/fwo/IDD60801/IDD60801.94326.axf

JavaScript Object Notation format (JSON) in row-major order
http://www.bom.gov.au/fwo/IDD60801/IDD60801.94326.json